createdAt,value
2023-10-18T00:00:29.579Z,16.38
2023-10-18T00:05:53.024Z,15.40
2023-10-18T00:11:18.076Z,15.13
2023-10-18T00:16:41.061Z,14.00
2023-10-18T00:22:04.074Z,12.25
2023-10-18T00:27:28.470Z,14.35
2023-10-18T00:32:51.556Z,11.65
2023-10-18T00:38:17.971Z,10.55
2023-10-18T00:43:45.537Z,10.13
2023-10-18T00:49:15.190Z,11.18
2023-10-18T00:54:40.549Z,15.48
2023-10-18T01:00:09.937Z,11.32
2023-10-18T01:05:33.090Z,12.68
2023-10-18T01:10:58.497Z,14.32
2023-10-18T01:16:23.455Z,14.05
2023-10-18T01:21:47.841Z,13.25
2023-10-18T01:27:14.756Z,12.75
2023-10-18T01:32:37.723Z,13.20
2023-10-18T01:38:05.338Z,13.88
2023-10-18T01:43:29.736Z,14.27
2023-10-18T01:48:53.466Z,12.10
2023-10-18T01:54:17.023Z,11.18
2023-10-18T01:59:41.487Z,14.70
2023-10-18T02:05:07.226Z,14.77
2023-10-18T02:10:30.284Z,14.20
2023-10-18T02:15:54.960Z,18.63
2023-10-18T02:21:18.041Z,13.05
2023-10-18T02:26:54.481Z,12.70
2023-10-18T02:32:24.615Z,13.02
2023-10-18T02:37:47.778Z,12.00
2023-10-18T02:43:12.496Z,10.68
2023-10-18T02:48:38.805Z,13.05
2023-10-18T02:54:09.134Z,12.73
2023-10-18T02:59:33.018Z,12.65
2023-10-18T03:04:57.514Z,7.25
2023-10-18T03:10:28.990Z,8.27
2023-10-18T03:16:06.270Z,9.00
2023-10-18T03:21:33.891Z,12.50
2023-10-18T03:27:07.347Z,10.32
2023-10-18T03:32:31.634Z,11.30
2023-10-18T03:38:04.436Z,6.88
2023-10-18T03:43:33.280Z,11.65
2023-10-18T03:48:57.189Z,10.75
2023-10-18T03:54:24.688Z,7.57
2023-10-18T03:59:48.015Z,11.48
2023-10-18T04:05:18.037Z,10.18
2023-10-18T04:10:42.853Z,11.43
2023-10-18T04:16:11.540Z,14.13
2023-10-18T04:21:37.755Z,12.13
2023-10-18T04:27:05.708Z,11.85
2023-10-18T04:32:28.897Z,11.00
2023-10-18T04:37:51.902Z,10.88
2023-10-18T04:43:19.812Z,12.82
2023-10-18T04:49:01.537Z,14.15
2023-10-18T04:54:36.908Z,14.85
2023-10-18T05:00:12.050Z,12.73
2023-10-18T05:05:45.851Z,12.45
2023-10-18T05:11:23.192Z,13.60
2023-10-18T05:16:48.249Z,12.65
2023-10-18T05:22:17.031Z,10.45
2023-10-18T05:27:47.485Z,12.18
2023-10-18T05:33:16.830Z,10.73
2023-10-18T05:38:51.756Z,9.30
2023-10-18T05:44:15.344Z,9.25
2023-10-18T05:49:42.991Z,10.77
2023-10-18T05:55:13.014Z,9.20
2023-10-18T06:00:37.130Z,9.50
2023-10-18T06:06:01.638Z,9.15
2023-10-18T06:11:24.636Z,8.35
2023-10-18T06:16:52.583Z,10.13
2023-10-18T06:22:29.350Z,10.60
2023-10-18T06:27:52.731Z,9.50
2023-10-18T06:33:16.998Z,9.80
2023-10-18T06:38:43.631Z,11.15
2023-10-18T06:44:12.443Z,15.05
2023-10-18T06:49:35.514Z,15.13
2023-10-18T06:55:02.020Z,21.85
2023-10-18T07:00:31.658Z,18.58
2023-10-18T07:05:55.616Z,13.38
2023-10-18T07:11:28.556Z,16.20
2023-10-18T07:16:57.530Z,14.45
2023-10-18T07:22:22.435Z,16.95
2023-10-18T07:33:12.890Z,27.83
2023-10-18T07:38:38.804Z,19.73
2023-10-18T07:44:06.739Z,28.45
2023-10-18T07:49:32.525Z,23.50
2023-10-18T07:54:55.624Z,25.23
2023-10-18T08:00:23.958Z,30.15
2023-10-18T08:05:51.731Z,26.35
2023-10-18T08:11:15.947Z,23.98
2023-10-18T08:16:46.148Z,26.45
2023-10-18T08:22:24.332Z,28.48
2023-10-18T08:27:47.750Z,30.33
2023-10-18T08:33:12.565Z,29.35
2023-10-18T08:44:09.923Z,32.30
2023-10-18T08:49:36.384Z,37.25
2023-10-18T08:55:20.502Z,29.83
2023-10-18T09:01:01.312Z,27.10
2023-10-18T09:06:32.247Z,28.45
2023-10-18T09:11:56.671Z,25.40
2023-10-18T09:17:24.315Z,21.73
2023-10-18T09:22:50.800Z,29.08
2023-10-18T09:28:19.503Z,30.95
2023-10-18T09:33:50.206Z,24.88
2023-10-18T09:39:16.529Z,33.58
2023-10-18T09:44:43.338Z,30.73
2023-10-18T09:50:10.785Z,29.70
2023-10-18T09:55:36.496Z,26.10
2023-10-18T10:01:14.972Z,26.10
2023-10-18T10:06:46.587Z,26.05
2023-10-18T10:12:12.393Z,28.17
2023-10-18T10:17:37.751Z,31.52
2023-10-18T10:23:03.808Z,30.23
2023-10-18T10:29:04.240Z,30.73
2023-10-18T10:34:29.651Z,23.85
2023-10-18T10:40:16.892Z,26.23
2023-10-18T10:45:55.266Z,20.13
2023-10-18T10:51:22.523Z,16.48
2023-10-18T10:56:54.919Z,17.42
2023-10-18T11:02:25.412Z,14.75
2023-10-18T11:07:48.580Z,16.08
2023-10-18T11:13:14.457Z,16.50
2023-10-18T11:18:44.104Z,15.60
2023-10-18T11:24:12.319Z,16.05
2023-10-18T11:29:41.827Z,13.55
2023-10-18T11:35:11.526Z,16.38
2023-10-18T11:40:35.340Z,17.00
2023-10-18T11:46:09.346Z,18.77
2023-10-18T11:51:46.351Z,15.03
2023-10-18T11:57:26.110Z,15.90
2023-10-18T12:02:49.536Z,14.00
2023-10-18T12:08:15.044Z,11.80
2023-10-18T12:13:38.645Z,16.13
2023-10-18T12:19:02.289Z,16.10
2023-10-18T12:24:28.553Z,14.65
2023-10-18T12:29:53.469Z,14.57
2023-10-18T12:35:16.962Z,13.85
2023-10-18T12:40:42.794Z,18.15
2023-10-18T12:46:07.357Z,14.93
2023-10-18T12:56:59.279Z,15.70
2023-10-18T13:07:53.883Z,12.02
2023-10-18T13:13:18.889Z,16.10
2023-10-18T13:18:47.045Z,12.93
2023-10-18T13:24:30.039Z,13.05
2023-10-18T13:30:02.477Z,11.57
2023-10-18T13:35:25.690Z,9.00
2023-10-18T13:40:50.274Z,11.65
2023-10-18T13:46:19.826Z,9.25
2023-10-18T13:51:44.089Z,9.75
2023-10-18T13:57:08.827Z,14.75
2023-10-18T14:02:32.970Z,12.43
2023-10-18T14:07:56.196Z,12.68
2023-10-18T14:13:20.490Z,10.00
2023-10-18T14:18:44.433Z,13.85
2023-10-18T14:24:09.151Z,13.65
2023-10-18T14:29:33.933Z,15.48
2023-10-18T14:34:58.626Z,9.25
2023-10-18T14:40:24.781Z,10.45
2023-10-18T14:45:49.167Z,10.68
2023-10-18T14:51:12.371Z,15.75
2023-10-18T14:56:35.629Z,7.97
2023-10-18T15:02:00.121Z,10.38
2023-10-18T15:07:23.155Z,10.60
2023-10-18T15:12:46.215Z,8.85
2023-10-18T15:18:10.703Z,15.40
2023-10-18T15:23:36.509Z,10.38
2023-10-18T15:28:59.485Z,9.40
2023-10-18T15:34:31.464Z,12.50
2023-10-18T15:39:57.310Z,13.43
2023-10-18T15:45:21.641Z,11.82
2023-10-18T15:50:46.186Z,8.73
2023-10-18T15:56:12.010Z,12.93
2023-10-18T16:01:51.060Z,8.40
2023-10-18T16:07:19.436Z,9.68
2023-10-18T16:12:42.846Z,12.88
2023-10-18T16:18:06.745Z,12.02
2023-10-18T16:23:31.473Z,14.20
2023-10-18T16:28:54.628Z,11.48
2023-10-18T16:34:20.711Z,15.18
2023-10-18T16:39:45.219Z,14.65
2023-10-18T16:45:09.811Z,9.68
2023-10-18T16:50:32.890Z,11.60
2023-10-18T16:55:57.783Z,18.25
2023-10-18T17:06:46.188Z,14.20
2023-10-18T17:12:12.081Z,14.50
2023-10-18T17:17:35.089Z,13.27
2023-10-18T17:22:58.443Z,13.65
2023-10-18T17:28:24.938Z,15.93
2023-10-18T17:33:48.449Z,15.48
2023-10-18T17:39:12.715Z,15.77
2023-10-18T17:44:38.566Z,16.42
2023-10-18T17:50:02.263Z,15.93
2023-10-18T17:55:25.992Z,17.02
2023-10-18T18:00:56.139Z,19.80
2023-10-18T18:06:19.950Z,16.23
2023-10-18T18:11:42.988Z,16.42
2023-10-18T18:17:08.491Z,17.10
2023-10-18T18:22:32.968Z,15.57
2023-10-18T18:27:57.827Z,18.15
2023-10-18T18:38:46.118Z,14.50
2023-10-18T18:44:09.122Z,21.73
2023-10-18T18:49:33.392Z,19.88
2023-10-18T18:54:56.655Z,14.98
2023-10-18T19:00:21.642Z,20.70
2023-10-18T19:05:47.061Z,22.23
2023-10-18T19:11:19.924Z,23.23
2023-10-18T19:16:42.982Z,20.83
2023-10-18T19:22:07.492Z,25.90
2023-10-18T19:27:30.656Z,20.60
2023-10-18T19:32:56.019Z,20.52
2023-10-18T19:38:22.751Z,22.30
2023-10-18T19:43:46.391Z,24.75
2023-10-18T19:49:10.465Z,22.85
2023-10-18T19:54:35.031Z,23.27
2023-10-18T19:59:58.313Z,15.35
2023-10-18T20:05:22.218Z,23.80
2023-10-18T20:10:46.574Z,20.67
2023-10-18T20:16:12.033Z,24.90
2023-10-18T20:21:36.675Z,28.23
2023-10-18T20:27:01.088Z,16.15
2023-10-18T20:32:24.378Z,23.33
2023-10-18T20:37:47.756Z,24.02
2023-10-18T20:43:13.290Z,24.75
2023-10-18T20:48:36.533Z,27.90
2023-10-18T20:53:59.737Z,23.83
2023-10-18T20:59:25.758Z,24.95
2023-10-18T21:04:49.851Z,22.50
2023-10-18T21:10:14.587Z,27.20
2023-10-18T21:15:39.975Z,16.33
2023-10-18T21:21:06.333Z,27.83
2023-10-18T21:26:29.487Z,27.73
2023-10-18T21:31:54.201Z,31.65
2023-10-18T21:37:17.358Z,30.38
2023-10-18T21:42:40.938Z,29.75
2023-10-18T21:48:06.270Z,30.85
2023-10-18T21:53:30.359Z,31.52
2023-10-18T21:58:54.199Z,32.53
2023-10-18T22:04:20.979Z,28.73
2023-10-18T22:09:53.903Z,29.20
2023-10-18T22:15:20.334Z,32.35
2023-10-18T22:20:46.410Z,30.88
2023-10-18T22:26:15.966Z,28.48
2023-10-18T22:31:39.509Z,29.90
2023-10-18T22:37:07.885Z,35.85
2023-10-18T22:42:39.829Z,29.02
2023-10-18T22:48:22.549Z,30.42
2023-10-18T22:53:52.523Z,33.75
2023-10-18T22:59:17.894Z,28.27
2023-10-18T23:04:45.381Z,31.58
2023-10-18T23:10:12.372Z,33.95
2023-10-18T23:15:48.796Z,31.20
2023-10-18T23:21:31.160Z,33.35
2023-10-18T23:27:13.831Z,33.25
2023-10-18T23:32:53.659Z,29.85
2023-10-18T23:38:24.113Z,27.98
2023-10-18T23:43:50.496Z,29.58
2023-10-18T23:49:46.206Z,29.30
2023-10-18T23:55:15.098Z,29.15
